Combes, Texas
Current Conditions -  °F | °C
As of 1:52 AM on Tuesday 21 Oct 2014 (Local Time) from KHRL Reporting Station
Few Clouds Few Clouds  
Wind Chill: 72°   Ceiling: Unl
Heat Index: 72°   Visibility: 10mi
Dew Point: 71°   Wind: 6mph
Humidity: 97%   Direction: 20°NNE
Pressure: 29.92"   Gusts: NA
Location:  26.25°N, 97.73°W
Report Text: KHRL 210652Z AUTO 02005KT 10SM FEW060 22/22 A2992 RMK AO2 SLP130 T02220217
Loading
Personal Weather Stations






























Interactive Weather Map
Tropical Storm Tracking
New forecast layout! Learn more

10-Day Weather Forecast

Advertisements
Track Severe Weather on mobile